N75KY CYUL-KBDL
Flight info
| Callsign | N75KY |
|---|---|
| Flight time | 1h 26m |
| Altitude | 7000 |
| Route | CYUL5 BTV T393 KEYNN DCT CEF |
| Aircraft | C208/L-VGD/C |
Departure
| Time | 2026-05-07 17:04 |
|---|---|
| Airport | Montreal / Pierre Elliott Trudeau International Airport (CYUL) |
Arrival
| Time | 2026-05-07 18:31 |
|---|---|
| Airport | Bradley International Airport (KBDL) |
| Time | Latitude | Longitude | Altitude | Speed | Heading |
|---|---|---|---|---|---|
| 2026-05-07 16:40 | 45.47157 | -73.71840 | 123 ft | 0 kts | 196° |
| 2026-05-07 17:00 | 45.47139 | -73.71835 | 123 ft | 7 kts | 99° |
| 2026-05-07 17:00 | 45.47196 | -73.71831 | 123 ft | 11 kts | 316° |
| 2026-05-07 17:00 | 45.47205 | -73.71844 | 123 ft | 0 kts | 314° |
| 2026-05-07 17:00 | 45.47209 | -73.71848 | 121 ft | 3 kts | 318° |
| 2026-05-07 17:01 | 45.47244 | -73.71829 | 122 ft | 11 kts | 44° |
| 2026-05-07 17:01 | 45.47323 | -73.71726 | 124 ft | 20 kts | 42° |
| 2026-05-07 17:01 | 45.47429 | -73.71584 | 128 ft | 20 kts | 44° |
| 2026-05-07 17:01 | 45.47474 | -73.71526 | 129 ft | 4 kts | 41° |
| 2026-05-07 17:02 | 45.47510 | -73.71478 | 127 ft | 8 kts | 41° |
| 2026-05-07 17:02 | 45.47549 | -73.71430 | 128 ft | 5 kts | 39° |
| 2026-05-07 17:02 | 45.47566 | -73.71417 | 126 ft | 8 kts | 6° |
| 2026-05-07 17:02 | 45.47615 | -73.71478 | 125 ft | 9 kts | 310° |
| 2026-05-07 17:03 | 45.47655 | -73.71542 | 121 ft | 9 kts | 312° |
| 2026-05-07 17:03 | 45.47676 | -73.71636 | 123 ft | 13 kts | 238° |
| 2026-05-07 17:03 | 45.47587 | -73.71758 | 122 ft | 26 kts | 223° |
| 2026-05-07 17:03 | 45.47339 | -73.72086 | 118 ft | 70 kts | 225° |
| 2026-05-07 17:04 | 45.46939 | -73.72577 | 305 ft | 76 kts | 235° |
| 2026-05-07 17:04 | 45.46540 | -73.73101 | 502 ft | 83 kts | 232° |
| 2026-05-07 17:04 | 45.46140 | -73.73615 | 869 ft | 74 kts | 225° |
| 2026-05-07 17:04 | 45.45719 | -73.74003 | 1150 ft | 70 kts | 224° |
| 2026-05-07 17:05 | 45.45287 | -73.74369 | 1393 ft | 74 kts | 221° |
| 2026-05-07 17:05 | 45.44843 | -73.74736 | 1646 ft | 76 kts | 223° |
| 2026-05-07 17:05 | 45.44375 | -73.75135 | 1915 ft | 80 kts | 221° |
| 2026-05-07 17:05 | 45.43892 | -73.75568 | 2185 ft | 84 kts | 223° |
| 2026-05-07 17:06 | 45.43382 | -73.76021 | 2461 ft | 87 kts | 223° |
| 2026-05-07 17:06 | 45.42859 | -73.76479 | 2732 ft | 89 kts | 222° |
| 2026-05-07 17:06 | 45.42214 | -73.76628 | 3005 ft | 112 kts | 171° |
| 2026-05-07 17:06 | 45.41492 | -73.76148 | 3277 ft | 114 kts | 168° |
| 2026-05-07 17:07 | 45.40753 | -73.75714 | 3546 ft | 116 kts | 168° |
| 2026-05-07 17:07 | 45.40004 | -73.75271 | 3790 ft | 117 kts | 169° |
| 2026-05-07 17:07 | 45.39248 | -73.74827 | 4059 ft | 118 kts | 171° |
| 2026-05-07 17:07 | 45.38487 | -73.74387 | 4324 ft | 118 kts | 171° |
| 2026-05-07 17:08 | 45.37724 | -73.73944 | 4592 ft | 119 kts | 171° |
| 2026-05-07 17:08 | 45.36959 | -73.73502 | 4847 ft | 119 kts | 169° |
| 2026-05-07 17:08 | 45.36191 | -73.73057 | 4997 ft | 128 kts | 169° |
| 2026-05-07 17:08 | 45.35307 | -73.72559 | 5014 ft | 145 kts | 168° |
| 2026-05-07 17:09 | 45.34323 | -73.71996 | 5015 ft | 158 kts | 167° |
| 2026-05-07 17:09 | 45.33278 | -73.71389 | 5012 ft | 166 kts | 167° |
| 2026-05-07 17:09 | 45.32186 | -73.70757 | 5006 ft | 171 kts | 167° |
| 2026-05-07 17:09 | 45.31073 | -73.70111 | 5005 ft | 174 kts | 166° |
| 2026-05-07 17:10 | 45.29954 | -73.69462 | 5007 ft | 174 kts | 166° |
| 2026-05-07 17:10 | 45.28834 | -73.68813 | 5010 ft | 174 kts | 166° |
| 2026-05-07 17:10 | 45.27714 | -73.68169 | 5009 ft | 174 kts | 166° |
| 2026-05-07 17:10 | 45.26608 | -73.67530 | 5007 ft | 174 kts | 165° |
| 2026-05-07 17:11 | 45.25485 | -73.66882 | 5008 ft | 175 kts | 166° |
| 2026-05-07 17:11 | 45.24354 | -73.66231 | 5008 ft | 175 kts | 166° |
| 2026-05-07 17:11 | 45.23223 | -73.65579 | 5008 ft | 176 kts | 166° |
| 2026-05-07 17:11 | 45.22093 | -73.64929 | 5010 ft | 175 kts | 166° |
| 2026-05-07 17:12 | 45.20958 | -73.64275 | 5011 ft | 175 kts | 166° |
| 2026-05-07 17:12 | 45.19826 | -73.63626 | 5005 ft | 175 kts | 166° |
| 2026-05-07 17:12 | 45.18701 | -73.62976 | 5003 ft | 174 kts | 166° |
| 2026-05-07 17:12 | 45.17579 | -73.62334 | 4996 ft | 174 kts | 165° |
| 2026-05-07 17:13 | 45.16455 | -73.61688 | 4993 ft | 175 kts | 166° |
| 2026-05-07 17:13 | 45.15327 | -73.61041 | 4993 ft | 175 kts | 166° |
| 2026-05-07 17:13 | 45.14198 | -73.60393 | 4992 ft | 175 kts | 165° |
| 2026-05-07 17:13 | 45.13083 | -73.59751 | 4997 ft | 175 kts | 165° |
| 2026-05-07 17:14 | 45.11956 | -73.59106 | 5001 ft | 175 kts | 166° |
| 2026-05-07 17:14 | 45.10826 | -73.58459 | 5001 ft | 175 kts | 166° |
| 2026-05-07 17:14 | 45.09699 | -73.57814 | 5000 ft | 175 kts | 166° |
| 2026-05-07 17:14 | 45.08574 | -73.57167 | 4999 ft | 174 kts | 166° |
| 2026-05-07 17:15 | 45.07449 | -73.56525 | 4997 ft | 174 kts | 166° |
| 2026-05-07 17:15 | 45.06324 | -73.55880 | 4999 ft | 174 kts | 166° |
| 2026-05-07 17:15 | 45.05198 | -73.55237 | 5000 ft | 174 kts | 166° |
| 2026-05-07 17:15 | 45.04072 | -73.54593 | 5001 ft | 175 kts | 166° |
| 2026-05-07 17:16 | 45.02944 | -73.53947 | 5002 ft | 175 kts | 166° |
| 2026-05-07 17:16 | 45.01818 | -73.53305 | 5001 ft | 174 kts | 166° |
| 2026-05-07 17:16 | 45.00695 | -73.52662 | 5001 ft | 174 kts | 166° |
| 2026-05-07 17:16 | 44.99585 | -73.52030 | 5001 ft | 174 kts | 166° |
| 2026-05-07 17:17 | 44.98461 | -73.51387 | 5000 ft | 174 kts | 166° |
| 2026-05-07 17:17 | 44.97338 | -73.50749 | 5000 ft | 174 kts | 166° |
| 2026-05-07 17:17 | 44.96212 | -73.50107 | 4994 ft | 175 kts | 166° |
| 2026-05-07 17:17 | 44.95076 | -73.49459 | 4996 ft | 177 kts | 167° |
| 2026-05-07 17:18 | 44.93929 | -73.48807 | 4997 ft | 178 kts | 167° |
| 2026-05-07 17:18 | 44.92784 | -73.48155 | 4996 ft | 178 kts | 166° |
| 2026-05-07 17:18 | 44.91638 | -73.47502 | 4999 ft | 177 kts | 166° |
| 2026-05-07 17:18 | 44.90494 | -73.46852 | 5003 ft | 178 kts | 167° |
| 2026-05-07 17:19 | 44.89346 | -73.46195 | 4999 ft | 178 kts | 166° |
| 2026-05-07 17:19 | 44.88202 | -73.45547 | 4996 ft | 177 kts | 166° |
| 2026-05-07 17:19 | 44.87057 | -73.44898 | 5001 ft | 177 kts | 166° |
| 2026-05-07 17:19 | 44.85916 | -73.44250 | 5002 ft | 177 kts | 167° |
| 2026-05-07 17:20 | 44.84771 | -73.43599 | 5005 ft | 177 kts | 166° |
| 2026-05-07 17:20 | 44.83630 | -73.42956 | 5010 ft | 176 kts | 165° |
| 2026-05-07 17:20 | 44.82492 | -73.42310 | 5019 ft | 176 kts | 165° |
| 2026-05-07 17:20 | 44.81359 | -73.41665 | 5013 ft | 175 kts | 165° |
| 2026-05-07 17:21 | 44.80230 | -73.41026 | 5004 ft | 175 kts | 165° |
| 2026-05-07 17:21 | 44.79101 | -73.40385 | 5001 ft | 174 kts | 164° |
| 2026-05-07 17:21 | 44.77976 | -73.39749 | 5003 ft | 174 kts | 165° |
| 2026-05-07 17:21 | 44.76854 | -73.39115 | 5005 ft | 174 kts | 165° |
| 2026-05-07 17:22 | 44.75743 | -73.38486 | 4996 ft | 175 kts | 164° |
| 2026-05-07 17:22 | 44.74621 | -73.37850 | 4998 ft | 174 kts | 164° |
| 2026-05-07 17:22 | 44.73500 | -73.37218 | 5000 ft | 173 kts | 164° |
| 2026-05-07 17:22 | 44.72380 | -73.36585 | 5001 ft | 174 kts | 165° |
| 2026-05-07 17:23 | 44.71257 | -73.35952 | 4998 ft | 174 kts | 164° |
| 2026-05-07 17:23 | 44.70135 | -73.35317 | 4998 ft | 173 kts | 164° |
| 2026-05-07 17:23 | 44.69011 | -73.34681 | 5001 ft | 175 kts | 164° |
| 2026-05-07 17:23 | 44.67872 | -73.34041 | 5007 ft | 178 kts | 164° |
| 2026-05-07 17:24 | 44.66724 | -73.33393 | 5014 ft | 178 kts | 164° |
| 2026-05-07 17:24 | 44.65580 | -73.32748 | 5005 ft | 176 kts | 164° |
| 2026-05-07 17:24 | 44.64443 | -73.32109 | 5008 ft | 175 kts | 164° |
| 2026-05-07 17:24 | 44.63309 | -73.31470 | 5008 ft | 176 kts | 165° |
| 2026-05-07 17:25 | 44.62168 | -73.30829 | 5013 ft | 177 kts | 164° |
| 2026-05-07 17:25 | 44.61021 | -73.30183 | 5014 ft | 178 kts | 164° |
| 2026-05-07 17:25 | 44.59875 | -73.29537 | 5010 ft | 177 kts | 164° |
| 2026-05-07 17:25 | 44.58733 | -73.28896 | 5014 ft | 176 kts | 164° |
| 2026-05-07 17:26 | 44.57604 | -73.28262 | 5003 ft | 177 kts | 165° |
| 2026-05-07 17:26 | 44.56463 | -73.27621 | 5004 ft | 176 kts | 165° |
| 2026-05-07 17:26 | 44.55325 | -73.26982 | 5004 ft | 176 kts | 164° |
| 2026-05-07 17:26 | 44.54187 | -73.26344 | 5005 ft | 176 kts | 164° |
| 2026-05-07 17:27 | 44.53046 | -73.25704 | 5002 ft | 176 kts | 165° |
| 2026-05-07 17:27 | 44.51903 | -73.25061 | 4998 ft | 177 kts | 166° |
| 2026-05-07 17:27 | 44.50757 | -73.24422 | 5011 ft | 178 kts | 165° |
| 2026-05-07 17:27 | 44.49604 | -73.23779 | 5011 ft | 179 kts | 164° |
| 2026-05-07 17:28 | 44.48452 | -73.23129 | 5001 ft | 179 kts | 163° |
| 2026-05-07 17:28 | 44.47295 | -73.22481 | 5001 ft | 179 kts | 165° |
| 2026-05-07 17:28 | 44.46142 | -73.21838 | 5000 ft | 178 kts | 163° |
| 2026-05-07 17:28 | 44.44992 | -73.21194 | 5002 ft | 178 kts | 164° |
| 2026-05-07 17:29 | 44.43840 | -73.20547 | 5006 ft | 179 kts | 164° |
| 2026-05-07 17:29 | 44.42682 | -73.19901 | 5009 ft | 179 kts | 165° |
| 2026-05-07 17:29 | 44.41528 | -73.19259 | 5009 ft | 178 kts | 164° |
| 2026-05-07 17:29 | 44.40378 | -73.18615 | 5011 ft | 178 kts | 163° |
| 2026-05-07 17:30 | 44.39399 | -73.17539 | 4994 ft | 188 kts | 126° |
| 2026-05-07 17:30 | 44.38754 | -73.15943 | 5000 ft | 188 kts | 122° |
| 2026-05-07 17:30 | 44.38098 | -73.14377 | 5004 ft | 187 kts | 123° |
| 2026-05-07 17:30 | 44.37444 | -73.12834 | 5005 ft | 188 kts | 123° |
| 2026-05-07 17:31 | 44.36780 | -73.11254 | 5023 ft | 189 kts | 123° |
| 2026-05-07 17:31 | 44.36127 | -73.09698 | 5188 ft | 179 kts | 123° |
| 2026-05-07 17:31 | 44.35520 | -73.08247 | 5434 ft | 168 kts | 123° |
| 2026-05-07 17:31 | 44.34939 | -73.06872 | 5686 ft | 162 kts | 123° |
| 2026-05-07 17:32 | 44.34376 | -73.05530 | 5931 ft | 158 kts | 124° |
| 2026-05-07 17:32 | 44.33826 | -73.04226 | 6183 ft | 153 kts | 124° |
| 2026-05-07 17:32 | 44.33295 | -73.02964 | 6424 ft | 148 kts | 124° |
| 2026-05-07 17:32 | 44.32952 | -73.02149 | 6578 ft | 145 kts | 124° |
| 2026-05-07 17:33 | 44.32274 | -73.00544 | 6893 ft | 143 kts | 124° |
| 2026-05-07 17:33 | 44.31760 | -72.99329 | 7000 ft | 150 kts | 124° |
| 2026-05-07 17:33 | 44.31206 | -72.98029 | 7007 ft | 162 kts | 124° |
| 2026-05-07 17:33 | 44.30607 | -72.96621 | 7014 ft | 173 kts | 124° |
| 2026-05-07 17:34 | 44.29979 | -72.95133 | 7001 ft | 182 kts | 123° |
| 2026-05-07 17:34 | 44.29327 | -72.93589 | 7011 ft | 187 kts | 124° |
| 2026-05-07 17:34 | 44.28660 | -72.92013 | 7006 ft | 191 kts | 124° |
| 2026-05-07 17:34 | 44.27985 | -72.90422 | 7004 ft | 194 kts | 124° |
| 2026-05-07 17:35 | 44.27299 | -72.88797 | 7004 ft | 194 kts | 124° |
| 2026-05-07 17:35 | 44.26617 | -72.87187 | 7006 ft | 191 kts | 124° |
| 2026-05-07 17:35 | 44.25937 | -72.85583 | 7007 ft | 193 kts | 124° |
| 2026-05-07 17:35 | 44.25248 | -72.83965 | 7000 ft | 195 kts | 124° |
| 2026-05-07 17:36 | 44.24555 | -72.82334 | 7003 ft | 196 kts | 123° |
| 2026-05-07 17:36 | 44.23862 | -72.80699 | 7004 ft | 196 kts | 123° |
| 2026-05-07 17:36 | 44.23166 | -72.79063 | 7003 ft | 196 kts | 124° |
| 2026-05-07 17:36 | 44.22471 | -72.77431 | 7005 ft | 196 kts | 123° |
| 2026-05-07 17:37 | 44.21772 | -72.75789 | 6994 ft | 198 kts | 124° |
| 2026-05-07 17:37 | 44.21067 | -72.74137 | 6997 ft | 200 kts | 124° |
| 2026-05-07 17:37 | 44.20359 | -72.72471 | 6999 ft | 199 kts | 123° |
| 2026-05-07 17:37 | 44.19663 | -72.70837 | 6998 ft | 198 kts | 124° |
| 2026-05-07 17:38 | 44.18959 | -72.69186 | 6995 ft | 198 kts | 123° |
| 2026-05-07 17:38 | 44.18257 | -72.67542 | 6987 ft | 197 kts | 124° |
| 2026-05-07 17:38 | 44.17552 | -72.65899 | 6999 ft | 198 kts | 124° |
| 2026-05-07 17:38 | 44.16847 | -72.64252 | 7002 ft | 198 kts | 123° |
| 2026-05-07 17:39 | 44.16143 | -72.62601 | 6997 ft | 198 kts | 123° |
| 2026-05-07 17:39 | 44.15438 | -72.60950 | 7002 ft | 198 kts | 123° |
| 2026-05-07 17:39 | 44.14731 | -72.59298 | 6998 ft | 198 kts | 123° |
| 2026-05-07 17:39 | 44.14024 | -72.57651 | 7002 ft | 198 kts | 123° |
| 2026-05-07 17:40 | 44.13322 | -72.56014 | 7000 ft | 196 kts | 123° |
| 2026-05-07 17:40 | 44.12632 | -72.54405 | 7003 ft | 196 kts | 123° |
| 2026-05-07 17:40 | 44.11935 | -72.52778 | 7004 ft | 196 kts | 123° |
| 2026-05-07 17:40 | 44.11235 | -72.51150 | 7002 ft | 196 kts | 123° |
| 2026-05-07 17:41 | 44.10535 | -72.49524 | 6998 ft | 196 kts | 123° |
| 2026-05-07 17:41 | 44.09838 | -72.47900 | 6985 ft | 194 kts | 123° |
| 2026-05-07 17:41 | 44.09147 | -72.46294 | 6985 ft | 193 kts | 123° |
| 2026-05-07 17:41 | 44.08325 | -72.44861 | 6990 ft | 187 kts | 150° |
| 2026-05-07 17:42 | 44.07173 | -72.44109 | 6997 ft | 181 kts | 165° |
| 2026-05-07 17:42 | 44.06005 | -72.43449 | 6996 ft | 181 kts | 164° |
| 2026-05-07 17:42 | 44.04848 | -72.42781 | 7005 ft | 180 kts | 164° |
| 2026-05-07 17:42 | 44.03683 | -72.42111 | 7003 ft | 182 kts | 164° |
| 2026-05-07 17:43 | 44.02509 | -72.41432 | 6991 ft | 183 kts | 164° |
| 2026-05-07 17:43 | 44.01334 | -72.40754 | 7002 ft | 183 kts | 164° |
| 2026-05-07 17:43 | 44.00161 | -72.40078 | 6993 ft | 183 kts | 164° |
| 2026-05-07 17:43 | 43.98981 | -72.39397 | 6979 ft | 183 kts | 164° |
| 2026-05-07 17:44 | 43.97796 | -72.38718 | 6991 ft | 185 kts | 163° |
| 2026-05-07 17:44 | 43.96605 | -72.38032 | 6993 ft | 185 kts | 164° |
| 2026-05-07 17:44 | 43.95427 | -72.37353 | 6995 ft | 186 kts | 164° |
| 2026-05-07 17:44 | 43.94233 | -72.36668 | 6994 ft | 185 kts | 164° |
| 2026-05-07 17:45 | 43.93040 | -72.35981 | 6989 ft | 185 kts | 163° |
| 2026-05-07 17:45 | 43.91852 | -72.35296 | 6983 ft | 185 kts | 163° |
| 2026-05-07 17:45 | 43.90668 | -72.34618 | 6983 ft | 184 kts | 164° |
| 2026-05-07 17:45 | 43.89483 | -72.33939 | 6976 ft | 184 kts | 163° |
| 2026-05-07 17:46 | 43.88314 | -72.33263 | 6992 ft | 182 kts | 163° |
| 2026-05-07 17:46 | 43.87135 | -72.32591 | 6994 ft | 184 kts | 163° |
| 2026-05-07 17:46 | 43.85950 | -72.31910 | 6997 ft | 185 kts | 163° |
| 2026-05-07 17:46 | 43.84756 | -72.31225 | 6999 ft | 186 kts | 163° |
| 2026-05-07 17:47 | 43.83965 | -72.30773 | 7002 ft | 186 kts | 163° |
| 2026-05-07 17:47 | 43.82772 | -72.30087 | 7000 ft | 185 kts | 163° |
| 2026-05-07 17:47 | 43.81584 | -72.29406 | 7001 ft | 184 kts | 163° |
| 2026-05-07 17:47 | 43.80400 | -72.28731 | 7000 ft | 184 kts | 164° |
| 2026-05-07 17:48 | 43.79220 | -72.28055 | 6996 ft | 184 kts | 164° |
| 2026-05-07 17:48 | 43.78035 | -72.27387 | 6996 ft | 184 kts | 164° |
| 2026-05-07 17:48 | 43.76872 | -72.26711 | 7002 ft | 179 kts | 164° |
| 2026-05-07 17:48 | 43.75715 | -72.26052 | 7003 ft | 180 kts | 165° |
| 2026-05-07 17:49 | 43.74548 | -72.25389 | 7006 ft | 182 kts | 165° |
| 2026-05-07 17:49 | 43.73369 | -72.24718 | 7009 ft | 184 kts | 165° |
| 2026-05-07 17:49 | 43.72183 | -72.24041 | 7013 ft | 185 kts | 165° |
| 2026-05-07 17:49 | 43.71002 | -72.23365 | 7019 ft | 184 kts | 165° |
| 2026-05-07 17:50 | 43.69819 | -72.22691 | 7017 ft | 184 kts | 164° |
| 2026-05-07 17:50 | 43.68631 | -72.22014 | 7019 ft | 185 kts | 164° |
| 2026-05-07 17:50 | 43.67418 | -72.21611 | 7004 ft | 174 kts | 191° |
| 2026-05-07 17:50 | 43.66240 | -72.21755 | 7027 ft | 171 kts | 193° |
| 2026-05-07 17:51 | 43.65099 | -72.21841 | 7267 ft | 158 kts | 193° |
| 2026-05-07 17:51 | 43.64030 | -72.21920 | 7504 ft | 150 kts | 194° |
| 2026-05-07 17:51 | 43.63007 | -72.22008 | 7745 ft | 145 kts | 195° |
| 2026-05-07 17:51 | 43.62010 | -72.22096 | 7979 ft | 143 kts | 195° |
| 2026-05-07 17:52 | 43.60976 | -72.22195 | 7995 ft | 154 kts | 195° |
| 2026-05-07 17:52 | 43.59885 | -72.22293 | 8010 ft | 159 kts | 194° |
| 2026-05-07 17:52 | 43.58757 | -72.22388 | 7978 ft | 164 kts | 194° |
| 2026-05-07 17:52 | 43.57609 | -72.22486 | 7984 ft | 167 kts | 194° |
| 2026-05-07 17:53 | 43.56442 | -72.22584 | 7983 ft | 169 kts | 194° |
| 2026-05-07 17:53 | 43.55256 | -72.22684 | 7984 ft | 172 kts | 194° |
| 2026-05-07 17:53 | 43.54053 | -72.22787 | 7987 ft | 173 kts | 194° |
| 2026-05-07 17:53 | 43.52857 | -72.22890 | 7986 ft | 172 kts | 194° |
| 2026-05-07 17:54 | 43.51663 | -72.22992 | 7990 ft | 172 kts | 194° |
| 2026-05-07 17:54 | 43.50467 | -72.23094 | 7998 ft | 172 kts | 194° |
| 2026-05-07 17:54 | 43.49285 | -72.23199 | 8004 ft | 173 kts | 194° |
| 2026-05-07 17:54 | 43.48079 | -72.23302 | 8007 ft | 173 kts | 194° |
| 2026-05-07 17:55 | 43.46872 | -72.23409 | 7996 ft | 174 kts | 194° |
| 2026-05-07 17:55 | 43.45677 | -72.23507 | 7999 ft | 170 kts | 194° |
| 2026-05-07 17:55 | 43.44502 | -72.23610 | 8000 ft | 168 kts | 194° |
| 2026-05-07 17:55 | 43.43338 | -72.23711 | 8001 ft | 168 kts | 194° |
| 2026-05-07 17:56 | 43.42168 | -72.23814 | 7996 ft | 169 kts | 194° |
| 2026-05-07 17:56 | 43.40991 | -72.23912 | 7996 ft | 169 kts | 194° |
| 2026-05-07 17:56 | 43.39814 | -72.24013 | 7996 ft | 170 kts | 193° |
| 2026-05-07 17:56 | 43.38630 | -72.24115 | 7995 ft | 171 kts | 193° |
| 2026-05-07 17:57 | 43.37444 | -72.24214 | 7998 ft | 171 kts | 194° |
| 2026-05-07 17:57 | 43.36655 | -72.24285 | 7996 ft | 171 kts | 194° |
| 2026-05-07 17:57 | 43.35064 | -72.24424 | 7997 ft | 172 kts | 194° |
| 2026-05-07 17:57 | 43.33871 | -72.24524 | 7997 ft | 171 kts | 193° |
| 2026-05-07 17:58 | 43.32701 | -72.24625 | 7996 ft | 170 kts | 193° |
| 2026-05-07 17:58 | 43.31522 | -72.24729 | 7995 ft | 169 kts | 194° |
| 2026-05-07 17:58 | 43.30343 | -72.24827 | 7996 ft | 171 kts | 194° |
| 2026-05-07 17:58 | 43.29159 | -72.24927 | 7995 ft | 170 kts | 193° |
| 2026-05-07 17:59 | 43.27962 | -72.25030 | 7996 ft | 170 kts | 194° |
| 2026-05-07 17:59 | 43.26797 | -72.25132 | 7995 ft | 170 kts | 194° |
| 2026-05-07 17:59 | 43.25616 | -72.25233 | 7995 ft | 170 kts | 194° |
| 2026-05-07 17:59 | 43.24444 | -72.25329 | 7994 ft | 168 kts | 194° |
| 2026-05-07 18:00 | 43.23278 | -72.25434 | 7993 ft | 169 kts | 194° |
| 2026-05-07 18:00 | 43.22098 | -72.25534 | 8001 ft | 170 kts | 193° |
| 2026-05-07 18:00 | 43.20916 | -72.25637 | 7997 ft | 170 kts | 193° |
| 2026-05-07 18:00 | 43.19741 | -72.25735 | 8000 ft | 168 kts | 194° |
| 2026-05-07 18:01 | 43.18573 | -72.25836 | 7998 ft | 169 kts | 193° |
| 2026-05-07 18:01 | 43.17396 | -72.25938 | 7998 ft | 170 kts | 193° |
| 2026-05-07 18:01 | 43.16207 | -72.26039 | 8000 ft | 172 kts | 193° |
| 2026-05-07 18:01 | 43.15009 | -72.26140 | 7998 ft | 172 kts | 193° |
| 2026-05-07 18:02 | 43.12621 | -72.26343 | 7995 ft | 171 kts | 194° |
| 2026-05-07 18:02 | 43.11430 | -72.26447 | 7997 ft | 171 kts | 194° |
| 2026-05-07 18:02 | 43.10238 | -72.26547 | 7999 ft | 172 kts | 193° |
| 2026-05-07 18:03 | 43.09042 | -72.26646 | 7992 ft | 172 kts | 193° |
| 2026-05-07 18:03 | 43.07869 | -72.26749 | 7993 ft | 170 kts | 194° |
| 2026-05-07 18:03 | 43.06687 | -72.26850 | 7998 ft | 170 kts | 194° |
| 2026-05-07 18:03 | 43.05502 | -72.26951 | 7998 ft | 171 kts | 194° |
| 2026-05-07 18:04 | 43.04315 | -72.27050 | 7990 ft | 170 kts | 193° |
| 2026-05-07 18:04 | 43.03135 | -72.27150 | 7992 ft | 169 kts | 193° |
| 2026-05-07 18:04 | 43.01960 | -72.27252 | 7989 ft | 169 kts | 193° |
| 2026-05-07 18:04 | 43.00794 | -72.27350 | 7990 ft | 167 kts | 193° |
| 2026-05-07 18:05 | 42.99630 | -72.27451 | 7989 ft | 168 kts | 194° |
| 2026-05-07 18:05 | 42.98459 | -72.27551 | 7991 ft | 169 kts | 193° |
| 2026-05-07 18:05 | 42.97278 | -72.27649 | 7992 ft | 171 kts | 193° |
| 2026-05-07 18:05 | 42.96089 | -72.27751 | 7993 ft | 171 kts | 193° |
| 2026-05-07 18:06 | 42.94899 | -72.27851 | 7993 ft | 171 kts | 193° |
| 2026-05-07 18:06 | 42.93713 | -72.27954 | 7992 ft | 171 kts | 193° |
| 2026-05-07 18:06 | 42.92538 | -72.28052 | 7991 ft | 171 kts | 193° |
| 2026-05-07 18:06 | 42.91331 | -72.28152 | 7989 ft | 171 kts | 193° |
| 2026-05-07 18:07 | 42.90161 | -72.28254 | 7992 ft | 170 kts | 193° |
| 2026-05-07 18:07 | 42.88962 | -72.28356 | 8007 ft | 170 kts | 193° |
| 2026-05-07 18:07 | 42.87794 | -72.28451 | 8006 ft | 171 kts | 193° |
| 2026-05-07 18:07 | 42.86607 | -72.28554 | 8007 ft | 171 kts | 193° |
| 2026-05-07 18:08 | 42.85420 | -72.28653 | 8006 ft | 170 kts | 193° |
| 2026-05-07 18:08 | 42.84245 | -72.28749 | 8006 ft | 169 kts | 193° |
| 2026-05-07 18:08 | 42.83079 | -72.28849 | 8007 ft | 167 kts | 194° |
| 2026-05-07 18:08 | 42.81914 | -72.28949 | 8000 ft | 168 kts | 193° |
| 2026-05-07 18:09 | 42.80741 | -72.29052 | 8003 ft | 170 kts | 193° |
| 2026-05-07 18:09 | 42.79556 | -72.29156 | 8006 ft | 169 kts | 195° |
| 2026-05-07 18:09 | 42.78449 | -72.29535 | 8001 ft | 163 kts | 207° |
| 2026-05-07 18:09 | 42.77368 | -72.29981 | 8006 ft | 162 kts | 206° |
| 2026-05-07 18:10 | 42.76282 | -72.30413 | 8006 ft | 163 kts | 206° |
| 2026-05-07 18:10 | 42.75193 | -72.30844 | 8009 ft | 163 kts | 205° |
| 2026-05-07 18:10 | 42.74102 | -72.31274 | 8005 ft | 163 kts | 205° |
| 2026-05-07 18:10 | 42.73016 | -72.31704 | 8004 ft | 162 kts | 206° |
| 2026-05-07 18:11 | 42.71930 | -72.32135 | 8006 ft | 163 kts | 206° |
| 2026-05-07 18:11 | 42.71209 | -72.32420 | 8002 ft | 164 kts | 206° |
| 2026-05-07 18:11 | 42.69743 | -72.33001 | 8008 ft | 164 kts | 206° |
| 2026-05-07 18:11 | 42.68644 | -72.33434 | 8007 ft | 164 kts | 206° |
| 2026-05-07 18:12 | 42.67545 | -72.33870 | 8015 ft | 165 kts | 206° |
| 2026-05-07 18:12 | 42.66442 | -72.34307 | 8017 ft | 166 kts | 206° |
| 2026-05-07 18:12 | 42.65334 | -72.34746 | 8016 ft | 166 kts | 206° |
| 2026-05-07 18:12 | 42.64228 | -72.35180 | 8004 ft | 165 kts | 207° |
| 2026-05-07 18:13 | 42.63129 | -72.35612 | 7996 ft | 164 kts | 207° |
| 2026-05-07 18:13 | 42.62031 | -72.36045 | 8004 ft | 165 kts | 206° |
| 2026-05-07 18:13 | 42.60942 | -72.36474 | 7992 ft | 165 kts | 207° |
| 2026-05-07 18:13 | 42.59836 | -72.36906 | 8004 ft | 165 kts | 207° |
| 2026-05-07 18:14 | 42.58737 | -72.37345 | 7997 ft | 164 kts | 207° |
| 2026-05-07 18:14 | 42.57639 | -72.37785 | 8008 ft | 165 kts | 207° |
| 2026-05-07 18:14 | 42.56534 | -72.38218 | 8008 ft | 166 kts | 207° |
| 2026-05-07 18:14 | 42.55423 | -72.38651 | 8008 ft | 166 kts | 206° |
| 2026-05-07 18:15 | 42.54314 | -72.39086 | 8003 ft | 165 kts | 207° |
| 2026-05-07 18:15 | 42.53218 | -72.39517 | 8001 ft | 163 kts | 207° |
| 2026-05-07 18:15 | 42.52128 | -72.39946 | 7990 ft | 162 kts | 207° |
| 2026-05-07 18:15 | 42.51045 | -72.40376 | 7834 ft | 170 kts | 207° |
| 2026-05-07 18:16 | 42.49892 | -72.40836 | 7586 ft | 174 kts | 205° |
| 2026-05-07 18:16 | 42.48704 | -72.41300 | 7332 ft | 176 kts | 205° |
| 2026-05-07 18:16 | 42.47539 | -72.41752 | 7085 ft | 177 kts | 204° |
| 2026-05-07 18:16 | 42.46352 | -72.42218 | 6826 ft | 178 kts | 204° |
| 2026-05-07 18:17 | 42.45154 | -72.42690 | 6582 ft | 180 kts | 204° |
| 2026-05-07 18:17 | 42.43945 | -72.43164 | 6337 ft | 182 kts | 203° |
| 2026-05-07 18:17 | 42.42725 | -72.43642 | 6079 ft | 183 kts | 202° |
| 2026-05-07 18:17 | 42.41499 | -72.44121 | 5817 ft | 183 kts | 202° |
| 2026-05-07 18:18 | 42.40275 | -72.44598 | 5547 ft | 182 kts | 202° |
| 2026-05-07 18:18 | 42.39064 | -72.45071 | 5278 ft | 181 kts | 202° |
| 2026-05-07 18:18 | 42.37867 | -72.45543 | 5021 ft | 181 kts | 202° |
| 2026-05-07 18:18 | 42.36655 | -72.46017 | 4769 ft | 182 kts | 202° |
| 2026-05-07 18:19 | 42.35440 | -72.46489 | 4507 ft | 181 kts | 201° |
| 2026-05-07 18:19 | 42.34244 | -72.46959 | 4243 ft | 175 kts | 201° |
| 2026-05-07 18:19 | 42.33104 | -72.47402 | 3975 ft | 167 kts | 202° |
| 2026-05-07 18:19 | 42.32002 | -72.47834 | 3728 ft | 162 kts | 202° |
| 2026-05-07 18:20 | 42.30943 | -72.48244 | 3586 ft | 156 kts | 204° |
| 2026-05-07 18:20 | 42.29909 | -72.48652 | 3447 ft | 153 kts | 202° |
| 2026-05-07 18:20 | 42.28898 | -72.49042 | 3313 ft | 149 kts | 203° |
| 2026-05-07 18:20 | 42.27904 | -72.49435 | 3186 ft | 149 kts | 201° |
| 2026-05-07 18:21 | 42.26898 | -72.49825 | 3044 ft | 151 kts | 203° |
| 2026-05-07 18:21 | 42.25887 | -72.50220 | 2906 ft | 152 kts | 202° |
| 2026-05-07 18:21 | 42.24891 | -72.50609 | 2781 ft | 150 kts | 204° |
| 2026-05-07 18:21 | 42.23890 | -72.51007 | 2695 ft | 148 kts | 202° |
| 2026-05-07 18:22 | 42.22909 | -72.51373 | 2693 ft | 146 kts | 202° |
| 2026-05-07 18:22 | 42.22258 | -72.51625 | 2701 ft | 143 kts | 202° |
| 2026-05-07 18:22 | 42.20996 | -72.52114 | 2696 ft | 140 kts | 205° |
| 2026-05-07 18:22 | 42.20052 | -72.52497 | 2704 ft | 143 kts | 202° |
| 2026-05-07 18:23 | 42.19076 | -72.52791 | 2703 ft | 147 kts | 190° |
| 2026-05-07 18:23 | 42.18058 | -72.52770 | 2743 ft | 144 kts | 186° |
| 2026-05-07 18:23 | 42.17028 | -72.52743 | 2743 ft | 153 kts | 184° |
| 2026-05-07 18:23 | 42.15940 | -72.52705 | 2751 ft | 162 kts | 186° |
| 2026-05-07 18:24 | 42.14797 | -72.52676 | 2753 ft | 169 kts | 184° |
| 2026-05-07 18:24 | 42.13591 | -72.52640 | 2710 ft | 177 kts | 184° |
| 2026-05-07 18:24 | 42.12370 | -72.52605 | 2704 ft | 173 kts | 184° |
| 2026-05-07 18:24 | 42.11181 | -72.52560 | 2712 ft | 172 kts | 184° |
| 2026-05-07 18:25 | 42.09976 | -72.52526 | 2611 ft | 177 kts | 184° |
| 2026-05-07 18:25 | 42.08717 | -72.52493 | 2358 ft | 184 kts | 183° |
| 2026-05-07 18:25 | 42.07426 | -72.52459 | 2114 ft | 188 kts | 184° |
| 2026-05-07 18:25 | 42.06145 | -72.52420 | 1997 ft | 175 kts | 183° |
| 2026-05-07 18:26 | 42.05039 | -72.52665 | 1975 ft | 152 kts | 218° |
| 2026-05-07 18:26 | 42.04542 | -72.53748 | 1980 ft | 134 kts | 266° |
| 2026-05-07 18:26 | 42.04232 | -72.54879 | 1982 ft | 130 kts | 239° |
| 2026-05-07 18:26 | 42.03635 | -72.55775 | 1985 ft | 127 kts | 235° |
| 2026-05-07 18:27 | 42.03036 | -72.56643 | 1984 ft | 126 kts | 233° |
| 2026-05-07 18:27 | 42.02417 | -72.57490 | 1997 ft | 128 kts | 233° |
| 2026-05-07 18:27 | 42.01786 | -72.58336 | 1998 ft | 128 kts | 232° |
| 2026-05-07 18:27 | 42.01361 | -72.58905 | 1953 ft | 134 kts | 232° |
| 2026-05-07 18:28 | 42.00483 | -72.60066 | 1731 ft | 126 kts | 233° |
| 2026-05-07 18:28 | 41.99875 | -72.60885 | 1549 ft | 121 kts | 233° |
| 2026-05-07 18:28 | 41.99301 | -72.61636 | 1395 ft | 114 kts | 229° |
| 2026-05-07 18:28 | 41.98739 | -72.62387 | 1231 ft | 113 kts | 233° |
| 2026-05-07 18:29 | 41.98198 | -72.63085 | 1073 ft | 104 kts | 234° |
| 2026-05-07 18:29 | 41.97715 | -72.63720 | 945 ft | 86 kts | 233° |
| 2026-05-07 18:29 | 41.97279 | -72.64298 | 825 ft | 93 kts | 232° |
| 2026-05-07 18:29 | 41.96793 | -72.64924 | 693 ft | 96 kts | 229° |
| 2026-05-07 18:30 | 41.96312 | -72.65560 | 567 ft | 98 kts | 229° |
| 2026-05-07 18:30 | 41.95814 | -72.66215 | 461 ft | 103 kts | 230° |
| 2026-05-07 18:30 | 41.95307 | -72.66894 | 333 ft | 102 kts | 235° |
| 2026-05-07 18:30 | 41.94802 | -72.67563 | 221 ft | 99 kts | 236° |
| 2026-05-07 18:31 | 41.94342 | -72.68158 | 211 ft | 84 kts | 236° |
| 2026-05-07 18:31 | 41.93998 | -72.68625 | 210 ft | 49 kts | 224° |
| 2026-05-07 18:31 | 41.93838 | -72.68833 | 209 ft | 26 kts | 226° |
| 2026-05-07 18:31 | 41.93803 | -72.68939 | 209 ft | 12 kts | 288° |
| 2026-05-07 18:32 | 41.93847 | -72.69014 | 209 ft | 0 kts | 311° |
| 2026-05-07 18:32 | 41.93859 | -72.69035 | 205 ft | 4 kts | 307° |
| 2026-05-07 18:32 | 41.93876 | -72.69075 | 210 ft | 7 kts | 256° |
| 2026-05-07 18:32 | 41.93827 | -72.69141 | 206 ft | 14 kts | 224° |
| 2026-05-07 18:33 | 41.93753 | -72.69238 | 212 ft | 14 kts | 224° |
| 2026-05-07 18:33 | 41.93735 | -72.69327 | 213 ft | 11 kts | 310° |
| 2026-05-07 18:33 | 41.93766 | -72.69368 | 209 ft | 10 kts | 273° |
| 2026-05-07 18:33 | 41.93785 | -72.69415 | 207 ft | 3 kts | 58° |
| 2026-05-07 18:34 | 41.93789 | -72.69404 | 209 ft | 1 kts | 62° |
| 2026-05-07 18:34 | 41.93789 | -72.69403 | 204 ft | 0 kts | 62° |